Time;durP1;ratioP1;P1;durP2;ratioP2;P2;SDS_P1;SDS_P2;PMS_P1;PMS_P2;Temp;Humidity;BMP_temperature;BMP_pressure;BME280_temperature;BME280_humidity;BME280_pressure;Samples;Min_cycle;Max_cycle;Signal;HPM_P1;HPM_P2
2021/12/22 00:01:22;;;;;;;45.85;19.48;;;-2.40;99.90;;;;;;5033876;28;20037;-57
2021/12/22 00:03:48;;;;;;;44.40;20.40;;;-2.40;99.90;;;;;;5033610;28;20021;-53
2021/12/22 00:06:23;;;;;;;45.58;20.60;;;-2.40;99.90;;;;;;5033589;28;20041;-53
2021/12/22 00:08:50;;;;;;;45.30;22.00;;;-2.40;99.90;;;;;;5033604;28;20018;-55
2021/12/22 00:11:17;;;;;;;41.10;19.88;;;-2.40;99.90;;;;;;5033336;28;20083;-55
2021/12/22 00:13:43;;;;;;;44.03;21.35;;;-2.40;99.90;;;;;;5033300;28;20029;-55
2021/12/22 00:16:09;;;;;;;47.75;21.48;;;-2.40;99.90;;;;;;5033666;28;20109;-55
2021/12/22 00:18:35;;;;;;;39.35;19.85;;;-2.40;99.90;;;;;;5033942;28;20061;-53
2021/12/22 00:21:02;;;;;;;40.47;20.55;;;-2.50;99.90;;;;;;5033187;28;20037;-55
2021/12/22 00:23:28;;;;;;;44.55;20.55;;;-2.50;99.90;;;;;;5032873;28;20052;-52
2021/12/22 00:25:54;;;;;;;42.55;20.85;;;-2.50;99.90;;;;;;5032990;28;20036;-50
2021/12/22 00:28:19;;;;;;;45.58;20.33;;;-2.50;99.90;;;;;;5033152;28;20022;-53
2021/12/22 00:30:46;;;;;;;41.40;20.23;;;-2.40;99.90;;;;;;5032943;28;20025;-55
2021/12/22 00:33:13;;;;;;;43.95;18.92;;;-2.40;99.90;;;;;;5033254;28;20100;-53
2021/12/22 00:35:42;;;;;;;40.63;19.52;;;-2.40;99.90;;;;;;5032825;28;20041;-51
2021/12/22 00:38:09;;;;;;;42.30;20.00;;;-2.50;99.90;;;;;;5032976;28;20057;-50
2021/12/22 00:40:36;;;;;;;41.90;18.77;;;-2.60;99.90;;;;;;5032552;28;20479;-55
2021/12/22 00:43:02;;;;;;;43.90;18.83;;;-2.60;99.90;;;;;;5032724;28;20104;-52
2021/12/22 00:45:28;;;;;;;41.20;19.63;;;-2.60;99.90;;;;;;5032755;28;20508;-53
2021/12/22 00:47:55;;;;;;;42.15;20.55;;;-2.60;99.90;;;;;;5033602;28;20099;-54
2021/12/22 00:50:22;;;;;;;41.75;20.77;;;-2.60;99.90;;;;;;5032712;28;20124;-50
2021/12/22 00:52:48;;;;;;;42.13;19.75;;;-2.50;99.90;;;;;;5033299;28;20382;-52
2021/12/22 00:55:17;;;;;;;44.95;19.20;;;-2.50;99.90;;;;;;5032750;28;20033;-56
2021/12/22 00:57:43;;;;;;;46.92;20.67;;;-2.50;99.90;;;;;;5032599;28;20026;-52
2021/12/22 01:00:09;;;;;;;48.58;21.85;;;-2.50;99.90;;;;;;5032453;28;20041;-51
2021/12/22 01:02:35;;;;;;;48.75;21.40;;;-2.40;99.90;;;;;;5032340;28;20372;-54
2021/12/22 01:05:00;;;;;;;46.45;21.20;;;-2.40;99.90;;;;;;5032252;28;20071;-53
2021/12/22 01:07:26;;;;;;;45.70;20.17;;;-2.40;99.90;;;;;;5032250;28;20022;-50
2021/12/22 01:09:52;;;;;;;47.67;19.55;;;-2.40;99.90;;;;;;5032368;28;20442;-53
2021/12/22 01:12:18;;;;;;;45.50;20.80;;;-2.40;99.90;;;;;;5032416;28;20025;-53
2021/12/22 01:14:43;;;;;;;48.97;19.30;;;-2.40;99.90;;;;;;5032498;28;20134;-53
2021/12/22 01:17:12;;;;;;;43.67;20.35;;;-2.40;99.90;;;;;;5032217;28;20533;-52
2021/12/22 01:20:03;;;;;;;43.83;19.63;;;-2.50;99.90;;;;;;5032074;28;20061;-52
2021/12/22 01:22:47;;;;;;;40.85;18.92;;;-2.50;99.90;;;;;;5032257;28;20363;-52
2021/12/22 01:25:16;;;;;;;47.72;19.05;;;-2.60;99.90;;;;;;5032712;28;20032;-52
2021/12/22 01:27:43;;;;;;;44.97;20.17;;;-2.60;99.90;;;;;;5032481;28;20036;-54
2021/12/22 01:30:18;;;;;;;47.30;20.38;;;-2.80;99.90;;;;;;5035376;28;20029;-50
2021/12/22 01:32:44;;;;;;;45.58;20.52;;;-2.80;99.90;;;;;;5039169;28;20104;-52
2021/12/22 01:35:13;;;;;;;45.47;20.58;;;-2.80;99.90;;;;;;5064873;22;20127;-51
2021/12/22 01:37:39;;;;;;;46.40;19.08;;;-2.80;99.90;;;;;;5079926;28;20020;-49
2021/12/22 01:40:06;;;;;;;50.97;21.92;;;-2.80;99.90;;;;;;5079849;28;20034;-49
2021/12/22 01:42:32;;;;;;;47.35;22.13;;;-2.90;99.90;;;;;;5080345;28;20403;-50
2021/12/22 01:50:43;;;;;;;45.10;20.40;;;-2.90;99.90;;;;;;5080262;28;20039;-50
2021/12/22 01:53:20;;;;;;;52.03;20.83;;;-2.80;99.90;;;;;;5080382;28;20158;-52
2021/12/22 01:56:00;;;;;;;44.78;19.95;;;-2.80;99.90;;;;;;5080270;28;20031;-50
2021/12/22 01:58:38;;;;;;;46.67;20.50;;;-2.80;99.90;;;;;;5080181;28;20035;-53
2021/12/22 02:01:05;;;;;;;47.78;20.95;;;-2.90;99.90;;;;;;5079898;28;20016;-50
2021/12/22 02:03:31;;;;;;;42.30;19.70;;;-2.90;99.90;;;;;;5079567;28;20028;-52
2021/12/22 02:05:57;;;;;;;42.30;19.90;;;-2.90;99.90;;;;;;5079944;28;20054;-50
2021/12/22 02:08:22;;;;;;;42.88;19.77;;;-2.90;99.90;;;;;;5080047;28;20025;-52
2021/12/22 02:10:48;;;;;;;43.75;21.05;;;-2.90;99.90;;;;;;5079690;28;20074;-52
2021/12/22 02:13:20;;;;;;;46.40;20.35;;;-2.90;99.90;;;;;;5079657;28;20028;-50
2021/12/22 02:15:47;;;;;;;42.03;19.95;;;-2.90;99.90;;;;;;5079522;28;20500;-52
2021/12/22 02:18:18;;;;;;;42.97;19.17;;;-2.90;99.90;;;;;;5079513;28;20036;-50
2021/12/22 02:20:48;;;;;;;41.65;20.33;;;-2.80;99.90;;;;;;5079567;28;20028;-51
2021/12/22 02:23:14;;;;;;;41.58;18.27;;;-2.80;99.90;;;;;;5079440;28;20035;-50
2021/12/22 02:25:47;;;;;;;44.33;19.85;;;-2.80;99.90;;;;;;5079559;28;20024;-50
2021/12/22 02:28:20;;;;;;;52.47;19.58;;;-2.70;99.90;;;;;;5079947;28;20385;-52
2021/12/22 02:30:46;;;;;;;41.53;20.67;;;-2.70;99.90;;;;;;5079966;28;20052;-52
2021/12/22 02:38:29;;;;;;;39.53;19.17;;;-2.80;99.90;;;;;;5079516;28;20031;-50
2021/12/22 02:40:54;;;;;;;40.95;19.60;;;-2.80;99.90;;;;;;5077974;28;20028;-52
2021/12/22 02:43:23;;;;;;;42.20;19.27;;;-2.80;99.90;;;;;;5075502;28;20032;-51
2021/12/22 02:45:50;;;;;;;45.30;20.05;;;-2.70;99.90;;;;;;5076538;28;20046;-51
2021/12/22 02:48:17;;;;;;;40.72;18.27;;;-2.70;99.90;;;;;;5076453;28;20029;-51
2021/12/22 02:50:43;;;;;;;43.78;18.95;;;-2.70;99.90;;;;;;5075868;28;20020;-53
2021/12/22 02:53:11;;;;;;;40.92;18.88;;;-2.70;99.90;;;;;;5076351;28;20151;-53
2021/12/22 02:58:15;;;;;;;40.90;17.30;;;-2.80;99.90;;;;;;5076295;28;20488;-49
2021/12/22 03:01:06;;;;;;;38.00;17.92;;;-2.80;99.90;;;;;;5077027;28;20035;-51
2021/12/22 03:06:09;;;;;;;38.63;18.48;;;-2.80;99.90;;;;;;5076440;28;20029;-49
2021/12/22 03:08:35;;;;;;;37.95;18.48;;;-2.80;99.90;;;;;;5075879;28;20035;-51
2021/12/22 03:11:01;;;;;;;40.88;18.38;;;-2.80;99.90;;;;;;5057993;28;20021;-51
2021/12/22 03:13:26;;;;;;;41.25;18.90;;;-2.80;99.90;;;;;;5076014;28;20033;-53
2021/12/22 03:15:52;;;;;;;42.15;19.80;;;-2.80;99.90;;;;;;5075638;28;20085;-53
2021/12/22 03:18:18;;;;;;;41.63;19.35;;;-2.80;99.90;;;;;;5075507;28;20473;-52
2021/12/22 03:20:47;;;;;;;38.67;17.73;;;-2.70;99.90;;;;;;5075387;28;20477;-49
2021/12/22 03:23:13;;;;;;;40.60;18.13;;;-2.60;99.90;;;;;;5075560;28;20047;-52
2021/12/22 03:25:39;;;;;;;36.22;17.67;;;-2.60;99.90;;;;;;5075764;28;20020;-52
2021/12/22 03:28:05;;;;;;;36.55;17.60;;;-2.60;99.90;;;;;;5076208;28;20035;-52
2021/12/22 03:30:31;;;;;;;41.25;17.50;;;-2.70;99.90;;;;;;5074890;28;20397;-50
2021/12/22 03:32:58;;;;;;;38.25;17.52;;;-2.60;99.90;;;;;;5057004;28;20502;-54
2021/12/22 03:35:24;;;;;;;38.70;18.27;;;-2.50;99.90;;;;;;5075271;28;20063;-53
2021/12/22 03:37:52;;;;;;;42.15;19.92;;;-2.60;99.90;;;;;;5074558;28;20033;-51
2021/12/22 03:40:19;;;;;;;41.13;18.20;;;-2.60;99.90;;;;;;5074997;28;20035;-52
2021/12/22 03:42:45;;;;;;;35.80;17.27;;;-2.50;99.90;;;;;;5075072;28;20339;-51
2021/12/22 03:45:11;;;;;;;37.78;17.80;;;-2.50;99.90;;;;;;5074696;28;20028;-49
2021/12/22 03:47:37;;;;;;;38.60;18.55;;;-2.50;99.90;;;;;;5074266;28;20156;-51
2021/12/22 03:50:04;;;;;;;38.42;18.08;;;-2.50;99.90;;;;;;5074250;28;20025;-49
2021/12/22 03:52:30;;;;;;;38.30;18.05;;;-2.50;99.90;;;;;;5073582;28;20032;-50
2021/12/22 03:54:58;;;;;;;37.65;18.60;;;-2.60;99.90;;;;;;5074062;28;20037;-50
2021/12/22 03:57:25;;;;;;;32.78;15.60;;;-2.60;99.90;;;;;;5074264;28;20032;-53
2021/12/22 03:59:50;;;;;;;35.92;17.60;;;-2.70;99.90;;;;;;5074319;28;20385;-53
2021/12/22 04:02:19;;;;;;;31.23;16.92;;;-2.70;99.90;;;;;;5074062;28;20028;-52
2021/12/22 04:04:47;;;;;;;33.33;16.17;;;-2.80;99.90;;;;;;5055872;28;20033;-49
2021/12/22 04:07:13;;;;;;;37.28;17.33;;;-2.90;99.90;;;;;;5074092;28;20397;-51
2021/12/22 04:09:38;;;;;;;43.38;18.77;;;-2.90;99.90;;;;;;5073602;28;20029;-51
2021/12/22 04:12:04;;;;;;;39.63;17.80;;;-2.90;99.90;;;;;;5073781;28;20042;-50
2021/12/22 04:14:30;;;;;;;39.38;18.52;;;-3.00;99.90;;;;;;5073867;28;20029;-50
2021/12/22 04:16:56;;;;;;;35.40;17.08;;;-3.00;99.90;;;;;;5073612;28;20036;-53
2021/12/22 04:19:21;;;;;;;41.40;18.65;;;-3.10;99.90;;;;;;5073488;28;20111;-51
2021/12/22 04:21:49;;;;;;;47.97;20.08;;;-3.10;99.90;;;;;;5073436;28;20033;-51
2021/12/22 04:24:15;;;;;;;42.40;18.85;;;-3.10;99.90;;;;;;5073845;28;20473;-49
2021/12/22 04:26:40;;;;;;;37.05;18.70;;;-3.00;99.90;;;;;;5073426;28;20039;-52
2021/12/22 04:29:06;;;;;;;43.25;19.55;;;-3.00;99.90;;;;;;5073607;28;20025;-50
2021/12/22 04:31:31;;;;;;;43.60;19.80;;;-3.00;99.90;;;;;;5073258;28;20386;-48
2021/12/22 04:33:57;;;;;;;39.88;18.50;;;-3.00;99.90;;;;;;5073318;28;20473;-49
2021/12/22 04:36:23;;;;;;;43.20;18.70;;;-2.90;99.90;;;;;;5073088;28;20090;-49
2021/12/22 04:38:49;;;;;;;44.85;19.63;;;-2.80;99.90;;;;;;5073424;28;20385;-49
2021/12/22 04:41:14;;;;;;;41.17;18.08;;;-2.90;99.90;;;;;;5073031;28;20043;-50
2021/12/22 04:43:40;;;;;;;39.80;18.58;;;-2.80;99.90;;;;;;5073086;28;20502;-51
2021/12/22 04:46:05;;;;;;;40.88;18.35;;;-2.80;99.90;;;;;;5073216;28;20077;-52
2021/12/22 04:48:34;;;;;;;38.20;18.08;;;-2.80;99.90;;;;;;5073010;28;20454;-52
2021/12/22 04:50:59;;;;;;;41.05;20.50;;;-2.80;99.90;;;;;;5073242;28;20035;-51
2021/12/22 04:53:28;;;;;;;44.10;17.88;;;-2.80;99.90;;;;;;5073147;28;20032;-51
2021/12/22 04:55:53;;;;;;;49.03;22.08;;;-2.70;99.90;;;;;;5055036;28;20032;-53
2021/12/22 04:58:19;;;;;;;44.67;19.60;;;-2.70;99.90;;;;;;5073040;28;20448;-50
2021/12/22 05:00:44;;;;;;;47.28;20.83;;;-2.70;99.90;;;;;;5073233;28;20112;-50
2021/12/22 05:03:10;;;;;;;50.85;20.92;;;-2.70;99.90;;;;;;5073441;28;20435;-50
2021/12/22 05:05:36;;;;;;;41.17;19.20;;;-2.80;99.90;;;;;;5072461;28;20059;-51
2021/12/22 05:08:01;;;;;;;44.30;19.05;;;-2.80;99.90;;;;;;5072880;28;20032;-50
2021/12/22 05:10:28;;;;;;;44.13;19.17;;;-2.80;99.90;;;;;;5072622;28;20021;-50
2021/12/22 05:12:54;;;;;;;44.03;20.05;;;-2.80;99.90;;;;;;5073694;28;20086;-52
2021/12/22 05:15:22;;;;;;;48.60;20.70;;;-2.70;99.90;;;;;;5073089;28;20439;-51
2021/12/22 05:20:21;;;;;;;41.50;18.48;;;-2.60;99.90;;;;;;5073210;28;20060;-51
2021/12/22 05:22:47;;;;;;;47.38;20.88;;;-2.50;99.90;;;;;;5073031;28;20037;-51
2021/12/22 05:25:13;;;;;;;42.90;18.73;;;-2.50;99.90;;;;;;5072711;28;20020;-50
2021/12/22 05:27:39;;;;;;;41.83;18.08;;;-2.60;99.90;;;;;;5073127;28;20488;-51
2021/12/22 05:30:06;;;;;;;41.58;17.42;;;-2.60;99.90;;;;;;5072946;28;20027;-50
2021/12/22 05:32:33;;;;;;;40.65;17.40;;;-2.50;99.90;;;;;;5072681;28;20032;-48
2021/12/22 05:35:00;;;;;;;41.67;19.05;;;-2.60;99.90;;;;;;5072953;28;20128;-49
2021/12/22 05:37:26;;;;;;;43.50;18.73;;;-2.60;99.90;;;;;;5072726;28;20028;-52
2021/12/22 05:39:52;;;;;;;43.05;19.50;;;-2.60;99.90;;;;;;5072757;28;20101;-50
2021/12/22 05:42:19;;;;;;;42.85;18.52;;;-2.60;99.90;;;;;;5072646;28;20044;-51
2021/12/22 05:44:45;;;;;;;42.45;19.98;;;-2.70;99.90;;;;;;5072239;28;20041;-50
2021/12/22 05:47:10;;;;;;;51.85;19.35;;;-2.70;99.90;;;;;;5072442;28;20060;-52
2021/12/22 05:49:36;;;;;;;51.00;19.88;;;-2.70;99.90;;;;;;5072460;28;20025;-48
2021/12/22 05:52:02;;;;;;;47.00;19.83;;;-2.70;99.90;;;;;;5072278;28;20035;-52
2021/12/22 05:54:28;;;;;;;45.50;19.90;;;-2.70;99.90;;;;;;5072105;28;20033;-52
2021/12/22 05:56:53;;;;;;;42.53;19.30;;;-2.80;99.90;;;;;;5072406;28;20469;-49
2021/12/22 05:59:19;;;;;;;41.80;19.35;;;-2.70;99.90;;;;;;5072803;28;20508;-50
2021/12/22 06:01:45;;;;;;;46.90;18.92;;;-2.70;99.90;;;;;;5072456;28;20040;-49
2021/12/22 06:04:10;;;;;;;43.85;20.10;;;-2.60;99.90;;;;;;5072018;28;20044;-50
2021/12/22 06:06:36;;;;;;;43.38;20.00;;;-2.60;99.90;;;;;;5072184;28;20037;-49
2021/12/22 06:09:02;;;;;;;45.35;20.17;;;-2.60;99.90;;;;;;5072480;28;20078;-50
2021/12/22 06:11:27;;;;;;;42.65;18.60;;;-2.60;99.90;;;;;;5072053;28;20025;-48
2021/12/22 06:13:53;;;;;;;44.75;20.42;;;-2.60;99.90;;;;;;5072398;28;20025;-51
2021/12/22 06:16:18;;;;;;;44.45;19.90;;;-2.50;99.90;;;;;;5074078;28;20112;-50
2021/12/22 06:18:45;;;;;;;46.15;20.02;;;-2.50;99.90;;;;;;5075914;28;20032;-51
2021/12/22 06:21:13;;;;;;;47.03;20.17;;;-2.50;99.90;;;;;;5075620;28;20036;-52
2021/12/22 06:23:39;;;;;;;45.83;20.60;;;-2.40;99.90;;;;;;5058379;28;20032;-52
2021/12/22 06:26:05;;;;;;;45.28;20.30;;;-2.40;99.90;;;;;;5076557;28;20089;-51
2021/12/22 06:28:31;;;;;;;40.78;19.80;;;-2.40;99.90;;;;;;5075511;28;20025;-52
2021/12/22 06:30:57;;;;;;;43.13;19.13;;;-2.40;99.90;;;;;;5075851;28;20031;-50
2021/12/22 06:33:22;;;;;;;48.20;21.80;;;-2.40;99.90;;;;;;5076314;28;20159;-52
2021/12/22 06:35:48;;;;;;;44.47;19.88;;;-2.40;99.90;;;;;;5075467;28;20040;-50
2021/12/22 06:38:17;;;;;;;44.45;20.00;;;-2.40;99.90;;;;;;5075670;28;20029;-50
2021/12/22 06:40:43;;;;;;;38.20;18.25;;;-2.40;99.90;;;;;;5075655;28;20378;-53
2021/12/22 06:43:09;;;;;;;48.47;19.88;;;-2.40;99.90;;;;;;5075489;28;20090;-50
2021/12/22 06:45:35;;;;;;;42.65;18.30;;;-2.40;99.90;;;;;;5075805;28;20043;-50
2021/12/22 06:48:01;;;;;;;40.42;19.80;;;-2.50;99.90;;;;;;5075302;28;20020;-49
2021/12/22 06:50:27;;;;;;;44.60;20.80;;;-2.50;99.90;;;;;;5075039;28;20044;-49
2021/12/22 06:52:53;;;;;;;35.53;18.00;;;-2.50;99.90;;;;;;5075461;28;20017;-50
2021/12/22 06:55:18;;;;;;;35.65;17.65;;;-2.50;99.90;;;;;;5076140;28;20095;-51
2021/12/22 06:57:44;;;;;;;44.67;18.98;;;-2.50;99.90;;;;;;5076044;28;20503;-49
2021/12/22 07:00:12;;;;;;;38.03;18.05;;;-2.50;99.90;;;;;;5075511;28;20024;-50
2021/12/22 07:02:39;;;;;;;46.65;18.33;;;-2.50;99.90;;;;;;5075151;28;20388;-49
2021/12/22 07:05:09;;;;;;;39.25;17.73;;;-2.50;99.90;;;;;;5075546;28;20027;-48
2021/12/22 07:07:36;;;;;;;45.25;20.02;;;-2.50;99.90;;;;;;5075387;28;20099;-54
2021/12/22 07:10:04;;;;;;;40.33;18.30;;;-2.50;99.90;;;;;;5075089;28;20111;-49
2021/12/22 07:12:30;;;;;;;34.05;16.73;;;-2.50;99.90;;;;;;5074735;28;20021;-53
2021/12/22 07:14:56;;;;;;;46.60;18.52;;;-2.60;99.90;;;;;;5074831;28;20036;-53
2021/12/22 07:17:21;;;;;;;47.20;18.35;;;-2.50;99.90;;;;;;5074865;28;20029;-50
2021/12/22 07:19:47;;;;;;;40.80;18.45;;;-2.50;99.90;;;;;;5074651;28;20397;-53
2021/12/22 07:22:12;;;;;;;40.30;19.02;;;-2.50;99.90;;;;;;5074722;28;20507;-52
2021/12/22 07:24:38;;;;;;;37.83;16.58;;;-2.50;99.90;;;;;;5074687;28;20446;-50
2021/12/22 07:27:04;;;;;;;39.88;17.95;;;-2.40;99.90;;;;;;5074498;28;20017;-49
2021/12/22 07:29:29;;;;;;;39.85;17.75;;;-2.50;99.90;;;;;;5074323;28;20028;-48
2021/12/22 07:31:55;;;;;;;38.40;17.48;;;-2.50;99.90;;;;;;5057116;28;20121;-48
2021/12/22 07:34:28;;;;;;;45.85;18.67;;;-2.40;99.90;;;;;;5074397;28;20070;-52
2021/12/22 07:37:26;;;;;;;40.55;17.17;;;-2.50;99.90;;;;;;5074895;28;20036;-51
2021/12/22 07:39:52;;;;;;;42.58;17.52;;;-2.40;99.90;;;;;;5069273;28;20059;-51
2021/12/22 07:42:17;;;;;;;41.80;19.08;;;-2.30;99.90;;;;;;5074466;28;20100;-49
2021/12/22 07:44:43;;;;;;;44.08;18.40;;;-2.40;99.90;;;;;;5087027;22;20155;-50
2021/12/22 07:47:09;;;;;;;45.67;17.85;;;-2.30;99.90;;;;;;5073779;28;20024;-50
2021/12/22 07:49:34;;;;;;;36.67;16.63;;;-2.20;99.90;;;;;;5074402;28;20136;-50
2021/12/22 07:52:00;;;;;;;42.00;17.80;;;-2.30;99.90;;;;;;5073717;28;20095;-51
2021/12/22 07:54:26;;;;;;;37.80;16.73;;;-2.30;99.90;;;;;;5074289;28;20107;-51
2021/12/22 07:56:51;;;;;;;37.15;16.80;;;-2.30;99.90;;;;;;5073611;28;20033;-54
2021/12/22 07:59:17;;;;;;;43.20;17.65;;;-2.20;99.90;;;;;;5073998;28;20024;-55
2021/12/22 08:01:43;;;;;;;35.88;16.42;;;-2.20;99.90;;;;;;5073788;28;20025;-50
2021/12/22 08:04:08;;;;;;;44.53;17.70;;;-2.20;99.90;;;;;;5073676;28;20075;-49
2021/12/22 08:06:34;;;;;;;38.10;16.75;;;-2.20;99.90;;;;;;5073688;28;20028;-50
2021/12/22 08:08:59;;;;;;;38.33;17.63;;;-2.20;99.90;;;;;;5073384;28;20024;-54
2021/12/22 08:11:25;;;;;;;38.72;17.83;;;-2.20;99.90;;;;;;5073325;28;20105;-51
2021/12/22 08:13:51;;;;;;;36.03;16.90;;;-2.20;99.90;;;;;;5073822;28;20319;-51
2021/12/22 08:16:16;;;;;;;37.22;17.42;;;-2.20;99.90;;;;;;5073605;28;20039;-52
2021/12/22 08:18:42;;;;;;;35.97;16.20;;;-2.20;99.90;;;;;;5072974;28;20100;-50
2021/12/22 08:21:08;;;;;;;39.55;17.65;;;-2.10;99.90;;;;;;5078604;28;20119;-48
2021/12/22 08:23:33;;;;;;;43.78;17.83;;;-2.10;99.90;;;;;;5082529;28;20093;-50
2021/12/22 08:25:59;;;;;;;38.97;18.27;;;-2.00;99.90;;;;;;5079977;28;20057;-51
2021/12/22 08:28:25;;;;;;;39.60;17.52;;;-2.00;99.90;;;;;;5089498;28;20031;-51
2021/12/22 08:30:50;;;;;;;39.17;17.75;;;-2.00;99.90;;;;;;5076219;28;20112;-50
2021/12/22 08:33:21;;;;;;;39.42;18.15;;;-2.00;99.90;;;;;;5086187;28;20049;-50
2021/12/22 08:38:53;;;;;;;40.40;17.20;;;-1.90;99.90;;;;;;5076360;28;20036;-51
2021/12/22 08:41:27;;;;;;;40.30;17.73;;;-1.90;99.90;;;;;;5085280;28;20029;-50
2021/12/22 08:43:55;;;;;;;42.30;17.40;;;-1.90;99.90;;;;;;5085066;28;20036;-52
2021/12/22 08:46:22;;;;;;;47.78;19.65;;;-1.80;99.90;;;;;;5079434;28;20019;-48
2021/12/22 08:48:48;;;;;;;50.75;21.00;;;-1.70;99.90;;;;;;5084994;28;20559;-51
2021/12/22 08:51:14;;;;;;;42.63;18.85;;;-1.70;99.90;;;;;;5078564;28;20099;-51
2021/12/22 08:53:40;;;;;;;41.22;18.75;;;-1.70;99.90;;;;;;5070864;28;20126;-51
2021/12/22 08:56:07;;;;;;;48.03;23.05;;;-1.70;99.90;;;;;;5077021;28;20080;-49
2021/12/22 08:58:33;;;;;;;43.60;19.67;;;-1.60;99.90;;;;;;5084488;28;20036;-49
2021/12/22 09:00:59;;;;;;;43.35;18.88;;;-1.50;99.90;;;;;;5084130;28;20039;-50
2021/12/22 09:03:24;;;;;;;43.22;19.92;;;-1.60;99.90;;;;;;5076892;28;20032;-51
2021/12/22 09:05:50;;;;;;;43.65;19.90;;;-1.60;99.90;;;;;;5088832;28;20392;-48
2021/12/22 09:08:15;;;;;;;43.25;19.27;;;-1.60;99.90;;;;;;5073102;28;20408;-51
2021/12/22 09:10:42;;;;;;;44.25;18.80;;;-1.60;99.90;;;;;;5080425;28;20073;-46
2021/12/22 09:13:07;;;;;;;47.92;19.52;;;-1.60;99.90;;;;;;5085443;28;20130;-51
2021/12/22 09:15:33;;;;;;;48.63;18.90;;;-1.60;99.90;;;;;;5042856;28;20033;-55
2021/12/22 09:17:58;;;;;;;50.28;20.23;;;-1.60;99.90;;;;;;5084887;28;20515;-51
2021/12/22 09:20:24;;;;;;;38.85;17.20;;;-1.50;99.90;;;;;;5089491;28;20081;-50
2021/12/22 09:22:50;;;;;;;48.47;19.63;;;-1.50;99.90;;;;;;5075637;28;20020;-49
2021/12/22 09:25:15;;;;;;;46.28;19.60;;;-1.50;99.90;;;;;;5085533;28;20021;-49
2021/12/22 09:27:41;;;;;;;46.05;19.42;;;-1.40;99.90;;;;;;5060585;28;20047;-54
2021/12/22 09:30:08;;;;;;;49.97;19.88;;;-1.30;99.90;;;;;;5072252;28;20040;-50
2021/12/22 09:32:34;;;;;;;50.42;20.20;;;-1.40;99.90;;;;;;5074540;28;20059;-50
2021/12/22 09:34:59;;;;;;;50.75;21.23;;;-1.30;99.90;;;;;;5072701;28;20025;-51
2021/12/22 09:37:25;;;;;;;51.83;20.63;;;-1.20;99.90;;;;;;5072698;28;20025;-51
2021/12/22 09:39:50;;;;;;;45.15;20.30;;;-1.20;99.90;;;;;;5072397;28;20056;-47
2021/12/22 09:42:17;;;;;;;42.65;20.20;;;-1.20;99.90;;;;;;5075872;28;20028;-52
2021/12/22 09:44:44;;;;;;;54.17;20.98;;;-1.20;99.90;;;;;;5074470;28;20029;-52
2021/12/22 09:47:15;;;;;;;47.63;20.50;;;-1.20;99.90;;;;;;5072381;28;20115;-53
2021/12/22 09:52:23;;;;;;;45.38;19.75;;;-1.30;99.90;;;;;;5075710;28;20060;-49
2021/12/22 09:54:51;;;;;;;43.58;19.27;;;-1.40;99.90;;;;;;5085934;28;20028;-49
2021/12/22 09:57:19;;;;;;;52.05;20.40;;;-1.40;99.90;;;;;;5094241;28;20517;-52
2021/12/22 09:59:47;;;;;;;49.22;21.55;;;-1.40;99.90;;;;;;5076538;28;20028;-53
2021/12/22 10:02:14;;;;;;;51.22;21.40;;;-1.40;99.90;;;;;;5075210;28;20086;-52
2021/12/22 10:04:40;;;;;;;45.67;20.92;;;-1.40;99.90;;;;;;5076731;28;20029;-51
2021/12/22 10:07:08;;;;;;;51.20;21.35;;;-1.40;99.90;;;;;;5087807;28;20352;-50
2021/12/22 10:09:42;;;;;;;53.53;21.85;;;-1.30;99.90;;;;;;5090927;28;20066;-49
2021/12/22 10:12:17;;;;;;;51.85;21.20;;;-1.20;99.90;;;;;;5057867;28;20025;-54
2021/12/22 10:14:56;;;;;;;50.75;20.60;;;-1.20;99.90;;;;;;5076315;28;20085;-51
2021/12/22 10:17:38;;;;;;;44.05;19.85;;;-1.10;99.90;;;;;;5075887;28;20407;-54
2021/12/22 10:20:09;;;;;;;48.38;20.67;;;-1.00;99.90;;;;;;5076238;28;20020;-50
2021/12/22 10:22:37;;;;;;;48.78;21.17;;;-1.00;99.90;;;;;;5075997;28;20121;-51
2021/12/22 10:25:25;;;;;;;52.80;22.13;;;-1.00;99.90;;;;;;5057676;28;20040;-50
2021/12/22 10:28:07;;;;;;;43.03;20.10;;;-0.90;99.90;;;;;;5075712;28;20074;-53
2021/12/22 10:30:34;;;;;;;44.58;20.50;;;-0.90;99.90;;;;;;5076039;28;20027;-53
2021/12/22 10:33:11;;;;;;;47.03;19.13;;;-0.80;99.90;;;;;;5057564;28;20031;-55
2021/12/22 10:35:38;;;;;;;53.17;21.60;;;-0.90;99.90;;;;;;5075729;28;20024;-53
2021/12/22 10:38:05;;;;;;;54.15;20.85;;;-0.80;99.90;;;;;;5075565;28;20031;-52
2021/12/22 10:40:34;;;;;;;53.75;20.98;;;-0.80;99.90;;;;;;5075017;28;20021;-53
2021/12/22 10:43:01;;;;;;;47.65;21.38;;;-0.80;99.90;;;;;;5075317;28;20029;-51
2021/12/22 10:45:29;;;;;;;53.42;21.83;;;-0.90;99.90;;;;;;5075252;28;20126;-53
2021/12/22 10:50:42;;;;;;;53.42;21.90;;;-0.80;99.90;;;;;;5075833;28;20212;-49
2021/12/22 10:53:11;;;;;;;52.75;22.85;;;-0.80;99.90;;;;;;5075294;28;20094;-52
2021/12/22 10:55:45;;;;;;;49.60;21.70;;;-0.80;99.90;;;;;;5075550;28;20039;-54
2021/12/22 10:58:25;;;;;;;57.10;21.67;;;-0.80;99.90;;;;;;5075849;28;20430;-53
2021/12/22 11:01:04;;;;;;;57.00;24.85;;;-0.70;99.90;;;;;;5075803;28;20029;-54
2021/12/22 11:03:41;;;;;;;52.83;22.67;;;-0.70;99.90;;;;;;5074637;28;20028;-50
2021/12/22 11:06:14;;;;;;;55.53;22.20;;;-0.70;99.90;;;;;;5075772;28;20100;-53
2021/12/22 11:08:40;;;;;;;58.75;23.30;;;-0.70;99.90;;;;;;5075130;28;20021;-53
2021/12/22 11:11:15;;;;;;;59.92;22.85;;;-0.60;99.90;;;;;;5074911;28;20506;-52
2021/12/22 11:13:41;;;;;;;51.35;22.33;;;-0.60;99.90;;;;;;5074956;28;20033;-51
2021/12/22 11:16:14;;;;;;;57.33;23.52;;;-0.50;99.90;;;;;;5074856;28;20389;-52
2021/12/22 11:18:40;;;;;;;53.47;23.88;;;-0.50;99.90;;;;;;5075364;28;20036;-51
2021/12/22 11:21:12;;;;;;;58.30;22.70;;;-0.60;99.90;;;;;;5075346;28;20394;-51
2021/12/22 11:23:38;;;;;;;49.90;22.00;;;-0.70;99.90;;;;;;5074802;28;20024;-54
2021/12/22 11:26:04;;;;;;;58.40;22.48;;;-0.70;99.90;;;;;;5076266;28;20028;-54
2021/12/22 11:28:31;;;;;;;50.13;22.00;;;-0.70;99.90;;;;;;5075332;28;20103;-53
2021/12/22 11:30:58;;;;;;;48.15;20.73;;;-0.80;99.90;;;;;;5074611;28;20025;-50
2021/12/22 11:33:27;;;;;;;53.00;22.92;;;-0.80;99.90;;;;;;5074440;28;20032;-50
2021/12/22 11:35:56;;;;;;;57.50;23.88;;;-0.70;99.90;;;;;;5074036;28;20031;-50
2021/12/22 11:38:23;;;;;;;44.50;20.60;;;-0.70;99.90;;;;;;5074274;28;20033;-53
2021/12/22 11:40:55;;;;;;;54.50;22.70;;;-0.70;99.90;;;;;;5073575;28;20115;-48
2021/12/22 11:43:24;;;;;;;53.75;21.30;;;-0.60;99.90;;;;;;5073436;28;20035;-50
2021/12/22 11:45:51;;;;;;;52.72;21.88;;;-0.70;99.90;;;;;;5072813;28;20021;-50
2021/12/22 11:48:17;;;;;;;53.65;24.00;;;-0.70;99.90;;;;;;5072231;28;20362;-50
2021/12/22 11:50:47;;;;;;;52.33;22.15;;;-0.60;99.90;;;;;;5072147;28;20075;-48
2021/12/22 11:53:14;;;;;;;55.92;22.42;;;-0.60;99.90;;;;;;5072247;28;20101;-50
2021/12/22 11:56:00;;;;;;;57.80;24.88;;;-0.60;99.90;;;;;;5072236;28;20064;-54
2021/12/22 11:58:34;;;;;;;51.38;23.42;;;-0.50;99.90;;;;;;5071880;28;20037;-52
2021/12/22 12:01:08;;;;;;;53.22;24.67;;;-0.50;99.90;;;;;;5072276;28;20021;-50
2021/12/22 12:03:44;;;;;;;60.80;23.85;;;-0.50;99.90;;;;;;5053951;28;20120;-53
2021/12/22 12:06:11;;;;;;;57.05;24.23;;;-0.40;99.90;;;;;;5072501;28;20081;-52
2021/12/22 12:08:45;;;;;;;49.67;21.58;;;-0.40;99.90;;;;;;5072232;28;20315;-50
2021/12/22 12:11:15;;;;;;;55.80;22.95;;;-0.40;99.90;;;;;;5072008;28;20096;-53
2021/12/22 12:22:06;;;;;;;46.05;19.92;;;-0.40;99.90;;;;;;5071846;28;20090;-50
2021/12/22 12:24:33;;;;;;;47.63;21.67;;;-0.40;99.90;;;;;;5072398;28;20120;-53
2021/12/22 12:27:02;;;;;;;48.75;20.00;;;-0.40;99.90;;;;;;5072497;28;20070;-53
2021/12/22 12:29:56;;;;;;;47.47;21.00;;;-0.40;99.90;;;;;;5072460;28;20103;-52
2021/12/22 12:32:40;;;;;;;49.72;20.73;;;-0.40;99.90;;;;;;5072054;28;20070;-47
2021/12/22 12:35:18;;;;;;;42.08;18.45;;;-0.40;99.90;;;;;;5071860;28;20029;-51
2021/12/22 12:38:16;;;;;;;39.33;18.67;;;-0.40;99.90;;;;;;5071573;28;20531;-50
2021/12/22 12:41:05;;;;;;;46.42;19.05;;;-0.50;99.90;;;;;;5037506;28;20037;-53
2021/12/22 12:43:47;;;;;;;41.67;19.17;;;-0.50;99.90;;;;;;5035196;28;1049027;-52
2021/12/22 12:46:40;;;;;;;44.67;20.45;;;-0.60;99.90;;;;;;5072642;28;20247;-50
2021/12/22 12:49:11;;;;;;;45.22;20.90;;;-0.50;99.90;;;;;;5072864;28;20024;-54
2021/12/22 12:51:44;;;;;;;48.83;20.33;;;-0.50;99.90;;;;;;5072441;28;20167;-51
2021/12/22 12:54:16;;;;;;;43.90;19.02;;;-0.60;99.90;;;;;;5072507;28;20519;-49
2021/12/22 12:57:00;;;;;;;50.35;19.73;;;-0.60;99.90;;;;;;5072811;28;20154;-51
2021/12/22 12:59:37;;;;;;;40.92;20.25;;;-0.60;99.90;;;;;;5073036;28;20039;-51
2021/12/22 13:02:08;;;;;;;41.60;19.13;;;-0.60;99.90;;;;;;5072630;28;20017;-50
2021/12/22 13:04:39;;;;;;;45.45;20.30;;;-0.50;99.90;;;;;;5073487;28;20028;-52
2021/12/22 13:07:16;;;;;;;38.60;18.42;;;-0.40;99.90;;;;;;5073440;28;20556;-50